Rio Bravo — WDF5037 — position and weather

sailwx.info

Track history (hours):
 
Tides and Currents Weather Stations Pressure Air Temp Water Temp Dewpoint Dewpoint Depression Visibility Wind Speed Wind Dir Waves Ship Positions

Rio Bravo

Owner: MOBRO Marine Inc, Green Cove Springs, FL. More information available from US FCC via Universal Licensing System and Coast Guard Vessel Documentation Center.

Last reported at 2017-Dec-11 15:18 UTC. Time now 2017-Dec-13 11:28 UTC.
Position N 25°31' W 080°03'.

Length 31 m; draft 4.5 m.

Type: Tow > 200 m length. MMSI: 367458640.

Date/timePositionNaut miles runAvg speedWind from/ knotsBaromVisibWave heightAir tempDewpointWater temp
2017-Dec-11 15:18N 25°31' W 080°03'2 6.6
2017-Dec-11 15:00N 25°33' W 080°03'3 6.5
2017-Dec-11 14:30N 25°36' W 080°03'3 6.1
2017-Dec-11 14:00N 25°39' W 080°03'3 6.5
2017-Dec-11 13:30N 25°43' W 080°03'4 7.5
2017-Dec-11 13:00N 25°46' W 080°04'4 8.4
2017-Dec-11 12:30N 25°51' W 080°04'4 7.5
2017-Dec-11 12:00N 25°54' W 080°04'4 7.2
2017-Dec-11 11:30N 25°58' W 080°04'4 7.0
2017-Dec-11 11:00N 26°02' W 080°04'4 7.8
2017-Dec-11 10:30N 26°05' W 080°02'5 9.2
2017-Dec-11 10:00N 26°10' W 080°02'5 9.8
2017-Dec-11 09:30N 26°15' W 080°02'4 8.7
2017-Dec-11 09:00N 26°19' W 080°02'5 7.9
2017-Dec-11 08:24N 26°24' W 080°02'3 7.7
2017-Dec-11 08:00N 26°27' W 080°01'4 8.4
2017-Dec-11 07:30N 26°31' W 080°00'4 9.0
2017-Dec-11 07:00N 26°35' W 080°00'5 9.1
2017-Dec-11 06:30N 26°40' W 079°60'4 9.0
2017-Dec-11 06:00N 26°44' W 079°60'4 8.5
2017-Dec-11 05:30N 26°49' W 079°60'4 8.1
2017-Dec-11 05:00N 26°53' W 080°00'4 7.9
2017-Dec-11 04:30N 26°57' W 080°00'4 7.7
2017-Dec-11 04:00N 27°01' W 079°60'  
Track history (hours):
 
Tides and Currents Weather Stations Pressure Air Temp Water Temp Dewpoint Dewpoint Depression Visibility Wind Speed Wind Dir Waves Ship Positions

Rio Bravo

Owner: MOBRO Marine Inc, Green Cove Springs, FL. More information available from US FCC via Universal Licensing System and Coast Guard Vessel Documentation Center.

Last reported at 2017-Dec-11 15:18 UTC. Time now 2017-Dec-13 11:28 UTC.
Position N 25°31' W 080°03'.

Length 31 m; draft 4.5 m.

Type: Tow > 200 m length. MMSI: 367458640.

Date/timePositionNaut miles runAvg speedWind from/ knotsBaromVisibWave heightAir tempDewpointWater temp
2017-Dec-11 15:18N 25°31' W 080°03'2 6.6
2017-Dec-11 15:00N 25°33' W 080°03'3 6.5
2017-Dec-11 14:30N 25°36' W 080°03'3 6.1
2017-Dec-11 14:00N 25°39' W 080°03'3 6.5
2017-Dec-11 13:30N 25°43' W 080°03'4 7.5
2017-Dec-11 13:00N 25°46' W 080°04'4 8.4
2017-Dec-11 12:30N 25°51' W 080°04'4 7.5
2017-Dec-11 12:00N 25°54' W 080°04'4 7.2
2017-Dec-11 11:30N 25°58' W 080°04'4 7.0
2017-Dec-11 11:00N 26°02' W 080°04'4 7.8
2017-Dec-11 10:30N 26°05' W 080°02'5 9.2
2017-Dec-11 10:00N 26°10' W 080°02'5 9.8
2017-Dec-11 09:30N 26°15' W 080°02'4 8.7
2017-Dec-11 09:00N 26°19' W 080°02'5 7.9
2017-Dec-11 08:24N 26°24' W 080°02'3 7.7
2017-Dec-11 08:00N 26°27' W 080°01'4 8.4
2017-Dec-11 07:30N 26°31' W 080°00'4 9.0
2017-Dec-11 07:00N 26°35' W 080°00'5 9.1
2017-Dec-11 06:30N 26°40' W 079°60'4 9.0
2017-Dec-11 06:00N 26°44' W 079°60'4 8.5
2017-Dec-11 05:30N 26°49' W 079°60'4 8.1
2017-Dec-11 05:00N 26°53' W 080°00'4 7.9
2017-Dec-11 04:30N 26°57' W 080°00'4 7.7
2017-Dec-11 04:00N 27°01' W 079°60'  

Dump ship's entire track history